Terminal Aerodrome Forecast
Issued by NWS State College, PA

Home | Current Version | Previous Version | Text Only | Print | Product List | Glossary On
Versions: 1 2 3 4 5 6 7 8 9 10 11 12 13 14 15 16 17 18 19 20 21 22 23 24 25 26 27 28 29 30 31 32 33 34 35 36 37 38 39 40 41 42 43 44 45 46 47 48 49 50
261
FTUS41 KCTP 230100 AAA
TAFIPT
TAF AMD
KIPT 230100Z 2301/2324 VRB03KT 3SM BR OVC004
     FM230300 VRB03KT 1/2SM FG OVC002
     FM231000 08010G15KT 1SM -RA BR OVC005
     FM231500 07013G23KT 2SM -RA BR OVC007 WS020/07035KT=

USA.gov is the U.S. government's official web portal to all federal, state and local government web resources and services.